Time;durP1;ratioP1;P1;durP2;ratioP2;P2;SDS_P1;SDS_P2;PMS_P1;PMS_P2;Temp;Humidity;BMP_temperature;BMP_pressure;BME280_temperature;BME280_humidity;BME280_pressure;Samples;Min_cycle;Max_cycle;Signal;HPM_P1;HPM_P2
2023/01/29 00:02:24;;;;;;;;;;;;;;;21.34;35.79;102811.28;7262375;19;155503;-75
2023/01/29 00:04:51;;;;;;;;;;;;;;;21.37;35.44;102813.56;7256632;19;155695;-74
2023/01/29 00:07:19;;;;;;;;;;;;;;;21.39;35.51;102812.19;7269549;19;153925;-74
2023/01/29 00:09:45;;;;;;;;;;;;;;;21.41;35.29;102818.38;7263083;19;154443;-74
2023/01/29 00:12:12;;;;;;;;;;;;;;;21.42;35.48;102820.06;7262153;19;154439;-76
2023/01/29 00:14:40;;;;;;;;;;;;;;;21.44;35.36;102819.81;7257055;19;155983;-74
2023/01/29 00:17:06;;;;;;;;;;;;;;;21.47;35.16;102810.81;7259813;19;154482;-74
2023/01/29 00:19:34;;;;;;;;;;;;;;;21.46;35.25;102818.41;7260719;19;153845;-74
2023/01/29 00:22:01;;;;;;;;;;;;;;;21.46;35.03;102803.50;7261645;19;153589;-74
2023/01/29 00:24:28;;;;;;;;;;;;;;;21.47;34.99;102819.25;7260297;19;154554;-74
2023/01/29 00:26:55;;;;;;;;;;;;;;;21.49;35.02;102809.44;7258663;19;153235;-75
2023/01/29 00:29:21;;;;;;;;;;;;;;;21.50;34.81;102804.66;7266062;19;153012;-74
2023/01/29 00:31:48;;;;;;;;;;;;;;;21.50;34.93;102811.13;7258886;19;153727;-74
2023/01/29 00:34:16;;;;;;;;;;;;;;;21.46;34.73;102809.97;7266063;19;154295;-74
2023/01/29 00:36:44;;;;;;;;;;;;;;;21.45;34.43;102799.84;7260343;19;157911;-74
2023/01/29 00:39:11;;;;;;;;;;;;;;;21.42;34.97;102802.34;7261600;19;153272;-74
2023/01/29 00:46:53;;;;;;;;;;;;;;;21.43;35.01;102804.91;7262177;19;154001;-75
2023/01/29 00:49:20;;;;;;;;;;;;;;;21.47;35.04;102810.81;7258820;19;153783;-74
2023/01/29 00:52:22;;;;;;;;;;;;;;;21.46;35.20;102814.75;7264315;19;156390;-75
2023/01/29 00:54:34;;;;;;;;;;;;;;;21.45;35.18;102816.72;7258006;19;154405;-74
2023/01/29 00:57:01;;;;;;;;;;;;;;;21.44;35.63;102802.94;7256709;19;155081;-74
2023/01/29 00:59:28;;;;;;;;;;;;;;;21.44;35.31;102802.94;7259298;19;153608;-74
2023/01/29 01:04:31;;;;;;;;;;;;;;;21.41;35.54;102809.09;7258860;19;153667;-75
2023/01/29 01:07:00;;;;;;;;;;;;;;;21.38;35.79;102801.19;7260072;19;153644;-74
2023/01/29 01:12:04;;;;;;;;;;;;;;;21.35;36.17;102790.50;7259410;19;154025;-74
2023/01/29 01:14:33;;;;;;;;;;;;;;;21.29;36.28;102793.25;7266951;19;153391;-74
2023/01/29 01:17:01;;;;;;;;;;;;;;;21.26;36.65;102779.72;7257185;19;153630;-73
2023/01/29 01:19:28;;;;;;;;;;;;;;;21.24;36.53;102784.78;7259612;19;153543;-72
2023/01/29 01:21:54;;;;;;;;;;;;;;;21.20;37.00;102788.41;7263414;19;153181;-74
2023/01/29 01:24:22;;;;;;;;;;;;;;;21.18;36.71;102783.03;7259577;19;154195;-73
2023/01/29 01:26:49;;;;;;;;;;;;;;;21.17;36.76;102774.84;7260697;19;153620;-72
2023/01/29 01:29:16;;;;;;;;;;;;;;;21.11;36.81;102775.91;7260775;19;153152;-73
2023/01/29 01:31:42;;;;;;;;;;;;;;;21.10;37.07;102780.69;7259755;19;157173;-73
2023/01/29 01:34:09;;;;;;;;;;;;;;;21.11;37.17;102767.50;7261392;19;153642;-73
2023/01/29 01:36:36;;;;;;;;;;;;;;;21.07;37.39;102771.94;7266718;19;153897;-73
2023/01/29 01:39:03;;;;;;;;;;;;;;;21.06;37.41;102764.63;7266370;19;153549;-73
2023/01/29 01:41:30;;;;;;;;;;;;;;;21.02;37.12;102763.47;7261093;19;156241;-75
2023/01/29 01:43:57;;;;;;;;;;;;;;;21.00;37.19;102769.34;7259016;19;153823;-73
2023/01/29 01:46:24;;;;;;;;;;;;;;;20.97;37.61;102774.66;7264419;19;153535;-73
2023/01/29 01:48:55;;;;;;;;;;;;;;;20.94;37.75;102773.22;7262081;19;154806;-73
2023/01/29 01:51:23;;;;;;;;;;;;;;;20.88;37.52;102774.31;7262204;19;153776;-73
2023/01/29 01:53:54;;;;;;;;;;;;;;;20.88;37.71;102779.06;7261483;19;153748;-73
2023/01/29 01:56:24;;;;;;;;;;;;;;;20.84;37.62;102775.97;7258842;19;152511;-74
2023/01/29 01:58:53;;;;;;;;;;;;;;;20.77;37.63;102778.97;7265745;19;154165;-74
2023/01/29 02:11:57;;;;;;;;;;;;;;;20.65;37.78;102785.88;7259646;19;154683;-76
2023/01/29 02:14:25;;;;;;;;;;;;;;;20.68;38.14;102780.56;7262843;19;153447;-77
2023/01/29 02:16:52;;;;;;;;;;;;;;;20.63;38.28;102777.69;7264789;19;155159;-76
2023/01/29 02:19:24;;;;;;;;;;;;;;;20.59;38.06;102770.06;7269157;19;152581;-76
2023/01/29 02:21:52;;;;;;;;;;;;;;;20.55;38.40;102772.56;7265290;19;153913;-76
2023/01/29 02:24:28;;;;;;;;;;;;;;;20.53;38.09;102768.34;7259473;19;154315;-77
2023/01/29 02:27:05;;;;;;;;;;;;;;;20.55;38.48;102764.13;7262839;19;153727;-75
2023/01/29 02:29:42;;;;;;;;;;;;;;;20.50;38.46;102775.31;7264945;19;153997;-76
2023/01/29 02:32:09;;;;;;;;;;;;;;;20.45;38.59;102763.16;7267192;19;153471;-77
2023/01/29 02:37:26;;;;;;;;;;;;;;;20.45;38.78;102764.00;7262139;19;154056;-79
2023/01/29 02:40:02;;;;;;;;;;;;;;;20.41;38.58;102774.06;7262132;19;154368;-78
2023/01/29 02:42:34;;;;;;;;;;;;;;;20.38;38.45;102781.09;7266702;19;153911;-78
2023/01/29 02:45:04;;;;;;;;;;;;;;;20.39;38.81;102779.97;7261969;19;156090;-79
2023/01/29 02:47:37;;;;;;;;;;;;;;;20.38;38.57;102783.88;7263338;19;154035;-78
2023/01/29 02:50:09;;;;;;;;;;;;;;;20.34;38.53;102790.28;7260565;19;154479;-79
2023/01/29 02:52:42;;;;;;;;;;;;;;;20.35;38.81;102780.75;7257581;19;154719;-78
2023/01/29 02:55:12;;;;;;;;;;;;;;;20.33;39.10;102788.59;7263378;19;154331;-79
2023/01/29 02:57:41;;;;;;;;;;;;;;;20.29;38.96;102782.63;7262770;19;153950;-78
2023/01/29 03:00:09;;;;;;;;;;;;;;;20.28;39.13;102778.13;7260971;19;156025;-78
2023/01/29 03:02:40;;;;;;;;;;;;;;;20.24;39.21;102778.91;7257879;19;152903;-78
2023/01/29 03:05:12;;;;;;;;;;;;;;;20.21;39.28;102774.66;7265925;19;154028;-78
2023/01/29 03:07:43;;;;;;;;;;;;;;;20.24;39.38;102771.34;7263113;19;153815;-78
2023/01/29 03:10:20;;;;;;;;;;;;;;;20.19;39.37;102765.66;7256666;19;153235;-80
2023/01/29 03:12:54;;;;;;;;;;;;;;;20.19;39.44;102770.41;7254968;19;153939;-79
2023/01/29 03:15:26;;;;;;;;;;;;;;;20.14;39.57;102767.53;7258407;19;153026;-79
2023/01/29 03:18:04;;;;;;;;;;;;;;;20.13;39.27;102763.03;7260119;19;153860;-78
2023/01/29 03:20:34;;;;;;;;;;;;;;;20.14;39.54;102756.31;7261916;19;154583;-78
2023/01/29 03:23:05;;;;;;;;;;;;;;;20.14;39.61;102743.13;7256380;19;153356;-79
2023/01/29 03:33:31;;;;;;;;;;;;;;;20.00;39.72;102727.81;7263751;19;154419;-74
2023/01/29 03:36:01;;;;;;;;;;;;;;;20.01;39.58;102723.91;7261316;19;154056;-75
2023/01/29 03:38:30;;;;;;;;;;;;;;;19.98;39.96;102725.28;7264525;19;154131;-73
2023/01/29 03:41:07;;;;;;;;;;;;;;;19.95;39.89;102722.13;7260785;19;155003;-72
2023/01/29 03:43:33;;;;;;;;;;;;;;;19.95;40.04;102722.13;7259780;19;153640;-72
2023/01/29 03:46:03;;;;;;;;;;;;;;;19.97;39.93;102723.56;7262937;19;154892;-73
2023/01/29 03:48:35;;;;;;;;;;;;;;;19.94;40.18;102717.66;7263181;19;155704;-74
2023/01/29 03:51:10;;;;;;;;;;;;;;;19.92;39.93;102720.69;7268808;19;153724;-73
2023/01/29 03:53:47;;;;;;;;;;;;;;;19.91;39.67;102715.34;7260848;19;153512;-73
2023/01/29 03:56:19;;;;;;;;;;;;;;;19.88;39.72;102724.28;7264826;19;153173;-73
2023/01/29 03:58:46;;;;;;;;;;;;;;;19.83;39.92;102721.41;7261584;19;153245;-73
2023/01/29 04:01:16;;;;;;;;;;;;;;;19.83;40.22;102722.28;7258986;19;153841;-73
2023/01/29 04:03:48;;;;;;;;;;;;;;;19.85;39.86;102713.59;7258021;19;152724;-73
2023/01/29 04:06:19;;;;;;;;;;;;;;;19.78;40.08;102719.38;7259473;19;154510;-73
2023/01/29 04:08:51;;;;;;;;;;;;;;;19.78;40.04;102713.78;7257774;19;155781;-73
2023/01/29 04:11:19;;;;;;;;;;;;;;;19.81;40.23;102718.84;7258340;19;154131;-74
2023/01/29 04:13:46;;;;;;;;;;;;;;;19.76;40.04;102709.56;7269377;19;154012;-73
2023/01/29 04:16:16;;;;;;;;;;;;;;;19.78;40.00;102712.94;7261524;19;153576;-73
2023/01/29 04:18:44;;;;;;;;;;;;;;;19.78;40.43;102705.38;7263003;19;153447;-73
2023/01/29 04:21:11;;;;;;;;;;;;;;;19.75;40.41;102705.91;7258495;19;154762;-75
2023/01/29 04:23:38;;;;;;;;;;;;;;;19.73;40.21;102699.69;7263129;19;153932;-73
2023/01/29 04:26:15;;;;;;;;;;;;;;;19.70;40.33;102703.03;7260212;19;154338;-72
2023/01/29 04:28:49;;;;;;;;;;;;;;;19.70;40.67;102716.19;7257924;19;154284;-74
2023/01/29 04:31:17;;;;;;;;;;;;;;;19.68;40.64;102707.19;7259016;19;153217;-73
2023/01/29 04:33:52;;;;;;;;;;;;;;;19.68;40.41;102705.22;7265359;19;153515;-74
2023/01/29 04:36:27;;;;;;;;;;;;;;;19.68;40.35;102707.19;7259315;19;153741;-74
2023/01/29 04:39:05;;;;;;;;;;;;;;;19.66;40.08;102704.66;7261100;19;154828;-73
2023/01/29 04:41:36;;;;;;;;;;;;;;;19.63;39.95;102701.50;7257100;19;156968;-73
2023/01/29 04:44:04;;;;;;;;;;;;;;;19.58;40.03;102696.66;7261850;19;153733;-73
2023/01/29 04:46:41;;;;;;;;;;;;;;;19.60;40.49;102705.69;7263613;19;153311;-73
2023/01/29 04:49:13;;;;;;;;;;;;;;;19.57;40.49;102696.94;7266892;19;155932;-73
2023/01/29 04:51:40;;;;;;;;;;;;;;;19.55;40.41;102697.19;7267097;19;155284;-72
2023/01/29 04:54:13;;;;;;;;;;;;;;;19.51;40.16;102691.25;7264517;19;153236;-73
2023/01/29 04:56:49;;;;;;;;;;;;;;;19.49;40.06;102682.25;7269968;19;154257;-74
2023/01/29 04:59:20;;;;;;;;;;;;;;;19.50;40.47;102685.91;7255701;19;153836;-75
2023/01/29 05:01:47;;;;;;;;;;;;;;;19.49;40.59;102679.44;7247877;19;156330;-72
2023/01/29 05:04:16;;;;;;;;;;;;;;;19.46;40.25;102677.19;7261426;19;153386;-73
2023/01/29 05:06:45;;;;;;;;;;;;;;;19.47;40.49;102670.47;7261373;19;160800;-73
2023/01/29 05:09:13;;;;;;;;;;;;;;;19.49;40.63;102658.97;7264005;19;154821;-73
2023/01/29 05:11:41;;;;;;;;;;;;;;;19.48;40.61;102662.91;7256618;19;154542;-74
2023/01/29 05:14:10;;;;;;;;;;;;;;;19.43;40.78;102666.50;7256425;19;153621;-73
2023/01/29 05:16:42;;;;;;;;;;;;;;;19.44;40.50;102670.16;7260274;19;153579;-73
2023/01/29 05:19:10;;;;;;;;;;;;;;;19.42;40.64;102659.16;7267984;19;153556;-72
2023/01/29 05:21:41;;;;;;;;;;;;;;;19.41;40.43;102659.41;7256599;19;154421;-73
2023/01/29 05:24:09;;;;;;;;;;;;;;;19.41;40.37;102657.44;7258987;19;153490;-73
2023/01/29 05:29:12;;;;;;;;;;;;;;;19.36;40.69;102646.16;7259383;19;154412;-73
2023/01/29 05:31:42;;;;;;;;;;;;;;;19.37;40.58;102645.06;7260949;19;154131;-74
2023/01/29 05:34:10;;;;;;;;;;;;;;;19.33;40.77;102648.63;7258889;19;154747;-73
2023/01/29 05:36:37;;;;;;;;;;;;;;;19.34;40.43;102653.16;7256152;19;154906;-73
2023/01/29 05:39:03;;;;;;;;;;;;;;;19.31;40.53;102639.63;7259659;19;154336;-73
2023/01/29 05:41:30;;;;;;;;;;;;;;;19.31;40.29;102631.22;7265589;19;153883;-74
2023/01/29 05:43:57;;;;;;;;;;;;;;;19.32;40.41;102641.34;7256255;19;154004;-74
2023/01/29 05:46:24;;;;;;;;;;;;;;;19.28;40.57;102631.75;7255954;19;153598;-74
2023/01/29 05:48:51;;;;;;;;;;;;;;;19.28;40.55;102626.16;7259029;19;154013;-73
2023/01/29 05:51:21;;;;;;;;;;;;;;;19.23;40.67;102621.31;7260072;19;153911;-78
2023/01/29 05:53:47;;;;;;;;;;;;;;;19.22;40.69;102619.63;7260807;19;154261;-81
2023/01/29 05:56:14;;;;;;;;;;;;;;;19.23;40.81;102620.47;7258279;19;155934;-78
2023/01/29 05:58:41;;;;;;;;;;;;;;;19.20;40.85;102623.81;7259375;19;153647;-78
2023/01/29 06:01:09;;;;;;;;;;;;;;;19.21;40.48;102617.94;7260178;19;153959;-78
2023/01/29 06:03:36;;;;;;;;;;;;;;;19.24;40.31;102622.16;7261466;19;153702;-77
2023/01/29 06:06:03;;;;;;;;;;;;;;;19.21;40.50;102617.94;7256479;19;154756;-78
2023/01/29 06:08:30;;;;;;;;;;;;;;;19.20;40.51;102612.59;7257616;19;153529;-78
2023/01/29 06:10:56;;;;;;;;;;;;;;;19.14;40.52;102606.06;7254837;19;152883;-77
2023/01/29 06:13:23;;;;;;;;;;;;;;;19.16;40.41;102605.81;7254926;19;156173;-78
2023/01/29 06:15:50;;;;;;;;;;;;;;;19.16;40.46;102605.81;7251090;19;157032;-78
2023/01/29 06:18:17;;;;;;;;;;;;;;;19.15;40.47;102618.13;7256761;19;151754;-77
2023/01/29 06:20:44;;;;;;;;;;;;;;;19.09;40.86;102612.44;7253905;19;154549;-79
2023/01/29 06:23:11;;;;;;;;;;;;;;;19.10;40.43;102604.88;7256337;19;154057;-78
2023/01/29 06:25:37;;;;;;;;;;;;;;;19.13;40.41;102609.97;7263091;19;153321;-78
2023/01/29 06:28:04;;;;;;;;;;;;;;;19.08;40.70;102610.72;7256812;19;153665;-78
2023/01/29 06:30:31;;;;;;;;;;;;;;;19.07;40.71;102611.88;7257345;19;154086;-78
2023/01/29 06:32:58;;;;;;;;;;;;;;;19.07;40.63;102617.47;7261999;19;154199;-78
2023/01/29 06:35:25;;;;;;;;;;;;;;;19.05;40.48;102610.41;7261086;19;155750;-78
2023/01/29 06:37:51;;;;;;;;;;;;;;;19.04;40.54;102612.34;7260673;19;153949;-78
2023/01/29 06:40:18;;;;;;;;;;;;;;;19.04;40.81;102612.34;7259183;19;153916;-77
2023/01/29 06:42:45;;;;;;;;;;;;;;;19.02;40.54;102614.59;7258096;19;154199;-79
2023/01/29 06:45:12;;;;;;;;;;;;;;;19.04;40.59;102614.31;7269764;19;153573;-77
2023/01/29 06:47:39;;;;;;;;;;;;;;;19.00;40.63;102611.19;7259469;19;153133;-78
2023/01/29 06:50:06;;;;;;;;;;;;;;;19.02;40.74;102611.78;7258815;19;154701;-77
2023/01/29 06:52:33;;;;;;;;;;;;;;;18.96;40.72;102606.34;7259712;19;153850;-78
2023/01/29 06:55:00;;;;;;;;;;;;;;;18.97;40.92;102608.06;7258020;19;154435;-77
2023/01/29 06:57:28;;;;;;;;;;;;;;;18.98;41.18;102596.59;7258239;19;154059;-77
2023/01/29 06:59:55;;;;;;;;;;;;;;;19.02;40.97;102597.78;7254942;19;155174;-78
2023/01/29 07:02:22;;;;;;;;;;;;;;;19.05;41.19;102593.59;7258508;19;153526;-77
2023/01/29 07:04:49;;;;;;;;;;;;;;;19.13;41.18;102600.69;7259417;19;153508;-78
2023/01/29 07:07:16;;;;;;;;;;;;;;;19.18;41.32;102590.41;7268141;19;154148;-78
2023/01/29 07:09:43;;;;;;;;;;;;;;;19.21;41.40;102591.88;7264087;19;154020;-78
2023/01/29 07:12:10;;;;;;;;;;;;;;;19.25;41.01;102585.50;7263078;19;153762;-78
2023/01/29 07:14:37;;;;;;;;;;;;;;;19.29;41.37;102586.66;7255226;19;154078;-78
2023/01/29 07:17:04;;;;;;;;;;;;;;;19.33;41.09;102587.84;7261131;19;154463;-78
2023/01/29 07:19:30;;;;;;;;;;;;;;;19.38;41.21;102593.50;7266900;19;153465;-79
2023/01/29 07:22:01;;;;;;;;;;;;;;;19.43;41.44;102592.72;7264386;19;154124;-78
2023/01/29 07:24:28;;;;;;;;;;;;;;;19.48;40.99;102587.22;7264210;19;154063;-79
2023/01/29 07:26:54;;;;;;;;;;;;;;;19.52;41.18;102586.44;7265778;19;154228;-79
2023/01/29 07:29:21;;;;;;;;;;;;;;;19.57;40.86;102585.66;7272832;19;153660;-79
2023/01/29 07:31:48;;;;;;;;;;;;;;;19.62;40.94;102580.09;7264843;19;154891;-77
2023/01/29 07:34:15;;;;;;;;;;;;;;;19.67;40.71;102573.72;7262295;19;153662;-77
2023/01/29 07:36:41;;;;;;;;;;;;;;;19.71;40.58;102578.53;7263932;19;153721;-77
2023/01/29 07:39:08;;;;;;;;;;;;;;;19.76;40.69;102581.38;7264042;19;153650;-77
2023/01/29 07:41:35;;;;;;;;;;;;;;;19.81;40.80;102580.56;7263143;19;153333;-79
2023/01/29 07:44:02;;;;;;;;;;;;;;;19.86;40.78;102580.63;7258985;19;154856;-78
2023/01/29 07:46:28;;;;;;;;;;;;;;;19.91;40.51;102578.72;7264448;19;153564;-77
2023/01/29 07:48:56;;;;;;;;;;;;;;;19.96;40.42;102578.78;7267077;19;153427;-78
2023/01/29 07:51:23;;;;;;;;;;;;;;;20.02;40.35;102574.09;7271737;19;153801;-78
2023/01/29 07:53:50;;;;;;;;;;;;;;;20.06;40.27;102569.63;7264689;19;153661;-78
2023/01/29 07:56:16;;;;;;;;;;;;;;;20.13;40.40;102569.41;7266247;19;154508;-77
2023/01/29 07:58:43;;;;;;;;;;;;;;;20.17;40.32;102571.41;7266609;19;153590;-77
2023/01/29 08:01:10;;;;;;;;;;;;;;;20.22;39.75;102574.25;7266272;19;154917;-78
2023/01/29 08:03:37;;;;;;;;;;;;;;;20.26;39.95;102574.59;7262816;19;153216;-77
2023/01/29 08:06:04;;;;;;;;;;;;;;;20.32;39.95;102580.00;7263746;19;154222;-78
2023/01/29 08:08:31;;;;;;;;;;;;;;;20.36;39.85;102569.94;7262168;19;156256;-78
2023/01/29 08:11:00;;;;;;;;;;;;;;;20.41;39.73;102569.97;7261926;19;153658;-78
2023/01/29 08:13:27;;;;;;;;;;;;;;;20.47;39.74;102575.63;7267242;19;154261;-77
2023/01/29 08:15:57;;;;;;;;;;;;;;;20.51;39.75;102574.84;7255808;19;153412;-77
2023/01/29 08:18:24;;;;;;;;;;;;;;;20.55;39.48;102575.97;7263071;19;153720;-78
2023/01/29 08:20:51;;;;;;;;;;;;;;;20.60;39.52;102577.97;7262798;19;154651;-78
2023/01/29 08:23:18;;;;;;;;;;;;;;;20.63;38.93;102569.84;7266885;19;153651;-78
2023/01/29 08:25:45;;;;;;;;;;;;;;;20.67;39.07;102576.63;7261773;19;153946;-78
2023/01/29 08:28:12;;;;;;;;;;;;;;;20.70;38.97;102566.84;7260755;19;154257;-78
2023/01/29 08:30:39;;;;;;;;;;;;;;;20.73;38.96;102569.94;7263838;19;153706;-78
2023/01/29 08:33:06;;;;;;;;;;;;;;;20.75;39.03;102570.53;7264187;19;154198;-77
2023/01/29 08:35:32;;;;;;;;;;;;;;;20.78;38.58;102561.56;7264625;19;153717;-78
2023/01/29 08:38:00;;;;;;;;;;;;;;;20.81;38.87;102568.56;7262139;19;153520;-79
2023/01/29 08:40:27;;;;;;;;;;;;;;;20.83;38.38;102569.16;7260581;19;154805;-78
2023/01/29 08:42:57;;;;;;;;;;;;;;;20.84;38.15;102565.25;7259732;19;153460;-78
2023/01/29 08:45:29;;;;;;;;;;;;;;;20.85;38.63;102564.94;7260496;19;154925;-78
2023/01/29 08:47:55;;;;;;;;;;;;;;;20.88;38.38;102572.00;7260513;19;153389;-79
2023/01/29 08:50:22;;;;;;;;;;;;;;;20.88;38.07;102571.16;7261158;19;153712;-79
2023/01/29 08:52:50;;;;;;;;;;;;;;;20.90;38.11;102566.09;7260049;19;153172;-78
2023/01/29 08:55:16;;;;;;;;;;;;;;;20.90;38.24;102571.72;7266952;19;153578;-78
2023/01/29 08:57:44;;;;;;;;;;;;;;;20.89;38.21;102573.72;7261699;19;155590;-80
2023/01/29 09:00:11;;;;;;;;;;;;;;;20.89;38.09;102567.25;7258929;19;154653;-80
2023/01/29 09:02:38;;;;;;;;;;;;;;;20.89;38.44;102564.44;7261858;19;154202;-78
2023/01/29 09:05:06;;;;;;;;;;;;;;;20.88;38.11;102557.13;7261136;19;154485;-79
2023/01/29 09:07:33;;;;;;;;;;;;;;;20.88;38.16;102559.91;7261479;19;153347;-80
2023/01/29 09:10:00;;;;;;;;;;;;;;;20.86;38.60;102555.41;7263287;19;153614;-78
2023/01/29 09:12:26;;;;;;;;;;;;;;;20.88;38.56;102554.31;7264879;19;154628;-79
2023/01/29 09:14:54;;;;;;;;;;;;;;;20.86;38.23;102554.56;7259214;19;154392;-79
2023/01/29 09:17:20;;;;;;;;;;;;;;;20.84;38.55;102557.66;7266645;19;153360;-78
2023/01/29 09:19:47;;;;;;;;;;;;;;;20.83;38.62;102552.31;7259753;19;153406;-81
2023/01/29 09:22:14;;;;;;;;;;;;;;;20.81;38.70;102554.53;7261497;19;153710;-78
2023/01/29 09:24:41;;;;;;;;;;;;;;;20.79;39.09;102551.16;7259059;19;153563;-73
2023/01/29 09:27:08;;;;;;;;;;;;;;;20.78;38.85;102555.09;7254806;19;154944;-73
2023/01/29 09:29:36;;;;;;;;;;;;;;;20.76;38.96;102558.16;7256658;19;153851;-73
2023/01/29 09:32:03;;;;;;;;;;;;;;;20.74;39.38;102549.16;7257815;19;152630;-73
2023/01/29 09:34:32;;;;;;;;;;;;;;;20.74;39.53;102559.56;7258333;19;156505;-72
2023/01/29 09:36:59;;;;;;;;;;;;;;;20.74;39.26;102548.31;7259324;19;153861;-73
2023/01/29 09:39:25;;;;;;;;;;;;;;;20.73;39.38;102550.28;7263803;19;154968;-73
2023/01/29 09:42:02;;;;;;;;;;;;;;;20.71;39.44;102549.72;7257829;19;153993;-73
2023/01/29 09:44:47;;;;;;;;;;;;;;;20.67;39.46;102547.72;7253645;19;153674;-75
2023/01/29 09:47:16;;;;;;;;;;;;;;;20.62;39.25;102548.53;7255077;19;154342;-73
2023/01/29 09:49:46;;;;;;;;;;;;;;;20.58;39.70;102550.16;7260055;19;153822;-73
2023/01/29 09:52:13;;;;;;;;;;;;;;;20.55;39.34;102556.31;7259164;19;153570;-75
2023/01/29 09:54:49;;;;;;;;;;;;;;;20.54;39.70;102560.25;7259399;19;154400;-73
2023/01/29 09:57:25;;;;;;;;;;;;;;;20.49;39.82;102550.97;7257417;19;155646;-73
2023/01/29 09:59:52;;;;;;;;;;;;;;;20.48;39.54;102550.09;7258431;19;153656;-72
2023/01/29 10:02:20;;;;;;;;;;;;;;;20.47;39.80;102554.03;7267096;19;153339;-73
2023/01/29 10:04:53;;;;;;;;;;;;;;;20.45;39.87;102556.25;7253839;19;156928;-73
2023/01/29 10:07:30;;;;;;;;;;;;;;;20.41;39.91;102557.91;7258904;19;155060;-74
2023/01/29 10:09:57;;;;;;;;;;;;;;;20.40;39.46;102550.59;7258734;19;154056;-75
2023/01/29 10:12:26;;;;;;;;;;;;;;;20.36;39.79;102546.63;7255572;19;154455;-74
2023/01/29 10:15:01;;;;;;;;;;;;;;;20.33;40.06;102545.22;7253433;19;157593;-75
2023/01/29 10:17:38;;;;;;;;;;;;;;;20.33;39.92;102538.75;7257538;19;153721;-75
2023/01/29 10:20:05;;;;;;;;;;;;;;;20.30;39.79;102530.88;7259883;19;154275;-74
2023/01/29 10:22:32;;;;;;;;;;;;;;;20.26;39.70;102535.31;7259849;19;154114;-74
2023/01/29 10:25:02;;;;;;;;;;;;;;;20.23;39.44;102541.44;7268093;19;152188;-73
2023/01/29 10:27:32;;;;;;;;;;;;;;;20.22;39.84;102534.97;7257901;19;154999;-74
2023/01/29 10:30:01;;;;;;;;;;;;;;;20.21;39.94;102533.31;7258492;19;153369;-74
2023/01/29 10:32:29;;;;;;;;;;;;;;;20.17;40.08;102537.72;7263276;19;153910;-74
2023/01/29 10:35:01;;;;;;;;;;;;;;;20.16;39.92;102538.88;7256959;19;154491;-74
2023/01/29 10:37:38;;;;;;;;;;;;;;;20.08;39.78;102536.53;7260241;19;153758;-73
2023/01/29 10:40:16;;;;;;;;;;;;;;;20.06;39.09;102527.53;7258217;19;157266;-74
2023/01/29 10:42:49;;;;;;;;;;;;;;;19.99;39.16;102527.75;7235496;19;154960;-74
2023/01/29 10:45:26;;;;;;;;;;;;;;;19.95;38.69;102522.94;7259421;19;152928;-75
2023/01/29 10:48:04;;;;;;;;;;;;;;;19.93;38.76;102522.38;7254677;19;154560;-73
2023/01/29 10:50:41;;;;;;;;;;;;;;;19.88;39.02;102516.72;7252849;19;153063;-75
2023/01/29 10:53:19;;;;;;;;;;;;;;;19.86;38.72;102514.16;7257352;19;155370;-73
2023/01/29 10:55:56;;;;;;;;;;;;;;;19.82;38.59;102501.78;7256990;19;154715;-74
2023/01/29 10:58:34;;;;;;;;;;;;;;;19.78;38.81;102495.03;7254110;19;152475;-74
2023/01/29 11:01:01;;;;;;;;;;;;;;;19.80;38.46;102486.34;7255642;19;153806;-74
2023/01/29 11:03:30;;;;;;;;;;;;;;;19.77;38.51;102482.09;7253769;19;154174;-74
2023/01/29 11:06:02;;;;;;;;;;;;;;;19.75;38.98;102483.50;7253154;19;154917;-74
2023/01/29 11:08:36;;;;;;;;;;;;;;;19.68;38.63;102486.50;7263880;19;151920;-74
2023/01/29 11:11:11;;;;;;;;;;;;;;;19.66;38.88;102479.47;7253482;19;153554;-74
2023/01/29 11:13:41;;;;;;;;;;;;;;;19.64;39.01;102471.31;7253834;19;154100;-75
2023/01/29 11:16:08;;;;;;;;;;;;;;;19.63;39.39;102475.22;7254352;19;154324;-74
2023/01/29 11:18:46;;;;;;;;;;;;;;;19.57;39.27;102473.50;7252517;19;153092;-73
2023/01/29 11:21:14;;;;;;;;;;;;;;;19.52;39.54;102470.66;7254035;19;153634;-74
2023/01/29 11:23:42;;;;;;;;;;;;;;;19.46;39.67;102452.06;7254316;19;154122;-74
2023/01/29 11:26:11;;;;;;;;;;;;;;;19.45;39.31;102450.38;7254299;19;153487;-73
2023/01/29 11:28:41;;;;;;;;;;;;;;;19.44;39.39;102449.53;7253623;19;155425;-74
2023/01/29 11:31:18;;;;;;;;;;;;;;;19.42;39.54;102450.88;7260322;19;156558;-74
2023/01/29 11:33:45;;;;;;;;;;;;;;;19.47;40.07;102448.16;7254856;19;156811;-74
2023/01/29 11:36:22;;;;;;;;;;;;;;;19.02;38.78;102438.13;7250636;19;155396;-73
2023/01/29 11:39:03;;;;;;;;;;;;;;;19.15;38.98;102431.25;7254650;19;154757;-74
2023/01/29 11:41:41;;;;;;;;;;;;;;;19.19;39.21;102428.75;7250420;19;156859;-76
2023/01/29 11:44:18;;;;;;;;;;;;;;;19.22;39.42;102422.63;7250889;19;153880;-77
2023/01/29 11:46:45;;;;;;;;;;;;;;;19.28;39.30;102418.78;7255765;19;152820;-76
2023/01/29 11:49:21;;;;;;;;;;;;;;;19.35;39.21;102408.22;7258557;19;154359;-77
2023/01/29 11:51:52;;;;;;;;;;;;;;;19.40;39.47;102403.47;7261385;19;157242;-76
2023/01/29 11:54:20;;;;;;;;;;;;;;;19.43;39.01;102403.00;7268912;19;153003;-77
2023/01/29 11:56:50;;;;;;;;;;;;;;;19.49;39.34;102392.66;7263057;19;155655;-78
2023/01/29 11:59:27;;;;;;;;;;;;;;;19.53;39.36;102385.44;7262728;19;155969;-77
2023/01/29 12:01:55;;;;;;;;;;;;;;;19.57;39.27;102381.00;7264980;19;153788;-77
2023/01/29 12:04:23;;;;;;;;;;;;;;;19.60;39.04;102383.25;7258086;19;153374;-78
2023/01/29 12:06:52;;;;;;;;;;;;;;;19.65;39.02;102372.06;7260913;19;154296;-77
2023/01/29 12:09:23;;;;;;;;;;;;;;;19.68;38.90;102365.91;7258066;19;154946;-77
2023/01/29 12:11:51;;;;;;;;;;;;;;;19.73;38.94;102362.31;7258498;19;155586;-78
2023/01/29 12:14:27;;;;;;;;;;;;;;;19.76;39.04;102359.00;7261370;19;153692;-77
2023/01/29 12:17:05;;;;;;;;;;;;;;;19.78;39.01;102360.41;7266520;19;154958;-78
2023/01/29 12:19:37;;;;;;;;;;;;;;;19.84;38.98;102352.88;7260282;19;154232;-76
2023/01/29 12:22:13;;;;;;;;;;;;;;;19.85;39.07;102343.34;7264423;19;153786;-77
2023/01/29 12:25:01;;;;;;;;;;;;;;;19.90;38.76;102344.22;7261033;19;153691;-76
2023/01/29 12:27:31;;;;;;;;;;;;;;;19.93;38.97;102338.09;7261925;19;152674;-76
2023/01/29 12:30:05;;;;;;;;;;;;;;;19.99;38.94;102333.31;7262102;19;153641;-76
2023/01/29 12:32:53;;;;;;;;;;;;;;;20.02;38.71;102326.34;7261743;19;154402;-77
2023/01/29 12:35:20;;;;;;;;;;;;;;;20.04;38.83;102327.75;7262581;19;153582;-76
2023/01/29 12:37:53;;;;;;;;;;;;;;;20.07;38.83;102321.63;7258548;19;156876;-77
2023/01/29 12:40:22;;;;;;;;;;;;;;;20.14;39.02;102312.94;7268192;19;153297;-76
2023/01/29 12:42:54;;;;;;;;;;;;;;;20.15;38.70;102304.25;7259365;19;154195;-76
2023/01/29 12:45:24;;;;;;;;;;;;;;;20.20;38.77;102307.09;7254848;19;157007;-76
2023/01/29 12:47:53;;;;;;;;;;;;;;;20.23;38.86;102292.50;7257599;19;153501;-77
2023/01/29 12:50:30;;;;;;;;;;;;;;;20.26;38.34;102285.50;7257217;19;155627;-76
2023/01/29 12:53:07;;;;;;;;;;;;;;;20.31;38.81;102282.72;7260546;19;154837;-76
2023/01/29 12:55:34;;;;;;;;;;;;;;;20.34;38.71;102276.59;7256947;19;151918;-80
2023/01/29 12:58:03;;;;;;;;;;;;;;;20.35;38.66;102270.69;7262792;19;153561;-80
2023/01/29 13:00:32;;;;;;;;;;;;;;;20.38;38.40;102261.72;7268363;19;153321;-79
2023/01/29 13:03:07;;;;;;;;;;;;;;;20.40;38.52;102251.03;7263404;19;153379;-80
2023/01/29 13:05:43;;;;;;;;;;;;;;;20.42;38.52;102245.16;7251598;19;154646;-80
2023/01/29 13:08:14;;;;;;;;;;;;;;;20.44;38.34;102236.47;7253228;19;153321;-80
2023/01/29 13:10:44;;;;;;;;;;;;;;;20.45;38.48;102227.75;7255635;19;154030;-79
2023/01/29 13:13:14;;;;;;;;;;;;;;;20.47;38.45;102222.72;7255813;19;154772;-79
2023/01/29 13:15:43;;;;;;;;;;;;;;;20.50;38.39;102221.31;7255453;19;153635;-79